createdAt,value
2019-05-10T00:02:37.343Z,95361.03
2019-05-10T00:05:40.794Z,95331.64
2019-05-10T00:08:49.351Z,95360.67
2019-05-10T00:11:56.400Z,95362.14
2019-05-10T00:15:04.945Z,95357.97
2019-05-10T00:17:49.518Z,95359.66
2019-05-10T00:20:39.247Z,95357.91
2019-05-10T00:23:21.685Z,95353.52
2019-05-10T00:26:11.419Z,95357.19
2019-05-10T00:28:53.576Z,95350.34
2019-05-10T00:31:43.316Z,95360.33
2019-05-10T00:34:25.577Z,95341.41
2019-05-10T00:40:02.489Z,95360.94
2019-05-10T00:42:33.149Z,95364.11
2019-05-10T00:45:22.897Z,95373.03
2019-05-10T00:48:12.628Z,95370.00
2019-05-10T00:50:55.543Z,95366.94
2019-05-10T00:53:45.357Z,95371.41
2019-05-10T00:56:27.740Z,95372.89
2019-05-10T00:59:17.496Z,95367.84
2019-05-10T01:02:01.278Z,95357.52
2019-05-10T01:04:43.349Z,95361.47
2019-05-10T01:07:33.119Z,95367.45
2019-05-10T01:10:25.870Z,95359.63
2019-05-10T01:13:15.636Z,95360.77
2019-05-10T01:16:05.422Z,95365.22
2019-05-10T01:18:55.301Z,95374.28
2019-05-10T01:21:45.020Z,95352.83
2019-05-10T01:24:34.790Z,95374.42
2019-05-10T01:27:17.398Z,95374.28
2019-05-10T01:30:00.158Z,95371.45
2019-05-10T01:32:50.271Z,95378.29
2019-05-10T01:35:47.588Z,95381.68
2019-05-10T01:38:37.365Z,95381.15
2019-05-10T01:41:27.172Z,95395.26
2019-05-10T01:47:39.666Z,95398.48
2019-05-10T01:50:21.986Z,95403.85
2019-05-10T01:53:11.720Z,95414.00
2019-05-10T01:55:54.386Z,95419.88
2019-05-10T01:58:37.030Z,95430.59
2019-05-10T02:01:19.090Z,95439.80
2019-05-10T02:07:23.348Z,95450.75
2019-05-10T02:10:13.312Z,95450.23
2019-05-10T02:13:03.063Z,95455.83
2019-05-10T02:15:52.770Z,95457.20
2019-05-10T02:18:35.182Z,95461.89
2019-05-10T02:21:24.918Z,95469.48
2019-05-10T02:24:08.644Z,95464.66
2019-05-10T02:26:51.230Z,95439.88
2019-05-10T02:29:40.987Z,95461.58
2019-05-10T02:32:30.770Z,95464.09
2019-05-10T02:35:20.475Z,95437.00
2019-05-10T02:38:02.632Z,95455.00
2019-05-10T02:40:52.381Z,95448.41
2019-05-10T02:43:42.202Z,95479.26
2019-05-10T02:46:32.030Z,95469.75
2019-05-10T02:49:21.964Z,95477.32
2019-05-10T02:52:11.796Z,95455.45
2019-05-10T02:55:01.522Z,95475.59
2019-05-10T02:58:15.148Z,95477.36
2019-05-10T03:00:56.009Z,95481.44
2019-05-10T03:03:46.101Z,95476.78
2019-05-10T03:06:57.245Z,95471.34
2019-05-10T03:13:04.322Z,95483.38
2019-05-10T03:15:54.741Z,95462.28
2019-05-10T03:22:09.113Z,95493.06
2019-05-10T03:24:51.049Z,95497.75
2019-05-10T03:27:40.848Z,95501.25
2019-05-10T03:30:23.492Z,95493.09
2019-05-10T03:33:13.174Z,95479.16
2019-05-10T03:35:55.407Z,95499.72
2019-05-10T03:38:45.317Z,95503.77
2019-05-10T03:41:27.255Z,95506.11
2019-05-10T03:44:16.958Z,95500.68
2019-05-10T03:46:59.022Z,95498.94
2019-05-10T03:49:48.732Z,95497.00
2019-05-10T03:52:31.273Z,95492.52
2019-05-10T03:55:20.946Z,95497.37
2019-05-10T03:58:03.540Z,95499.48
2019-05-10T04:03:46.685Z,95481.23
2019-05-10T04:06:36.463Z,95497.47
2019-05-10T04:09:26.257Z,95501.17
2019-05-10T04:12:16.117Z,95498.61
2019-05-10T04:15:06.815Z,95496.48
2019-05-10T04:17:56.621Z,95494.95
2019-05-10T04:20:46.328Z,95495.00
2019-05-10T04:23:36.039Z,95498.91
2019-05-10T04:26:18.211Z,95497.75
2019-05-10T04:28:48.876Z,95503.77
2019-05-10T04:34:35.345Z,95498.54
2019-05-10T04:37:25.079Z,95511.55
2019-05-10T04:40:09.103Z,95512.91
2019-05-10T04:42:58.837Z,95509.58
2019-05-10T04:45:42.011Z,95509.61
2019-05-10T04:48:31.742Z,95522.02
2019-05-10T04:51:13.889Z,95524.16
2019-05-10T04:54:03.609Z,95523.98
2019-05-10T04:59:37.352Z,95532.72
2019-05-10T05:02:08.024Z,95536.94
2019-05-10T05:04:52.417Z,95535.58
2019-05-10T05:07:42.131Z,95512.94
2019-05-10T05:10:31.850Z,95541.59
2019-05-10T05:13:14.258Z,95542.34
2019-05-10T05:16:04.016Z,95552.81
2019-05-10T05:18:50.146Z,95557.47
2019-05-10T05:21:32.652Z,95541.56
2019-05-10T05:24:23.099Z,95563.87
2019-05-10T05:27:06.992Z,95562.50
2019-05-10T05:29:56.867Z,95556.08
2019-05-10T05:32:59.861Z,95536.86
2019-05-10T05:35:43.722Z,95561.51
2019-05-10T05:38:33.467Z,95561.11
2019-05-10T05:41:15.488Z,95556.40
2019-05-10T05:44:05.210Z,95562.63
2019-05-10T05:46:47.842Z,95569.80
2019-05-10T05:49:37.577Z,95562.78
2019-05-10T05:52:19.752Z,95548.85
2019-05-10T05:55:09.437Z,95572.81
2019-05-10T05:57:52.397Z,95573.16
2019-05-10T06:00:44.836Z,95576.19
2019-05-10T06:03:28.118Z,95570.47
2019-05-10T06:06:21.817Z,95573.33
2019-05-10T06:09:01.729Z,95572.80
2019-05-10T06:12:12.558Z,95569.44
2019-05-10T06:14:55.223Z,95566.44
2019-05-10T06:17:55.721Z,95572.04
2019-05-10T06:20:29.213Z,95560.63
2019-05-10T06:23:12.064Z,95571.83
2019-05-10T06:26:02.036Z,95580.05
2019-05-10T06:29:03.781Z,95551.18
2019-05-10T06:31:37.809Z,95580.63
2019-05-10T06:34:20.777Z,95585.30
2019-05-10T06:37:10.515Z,95584.64
2019-05-10T06:39:52.559Z,95589.92
2019-05-10T06:42:42.323Z,95594.03
2019-05-10T06:45:32.112Z,95593.09
2019-05-10T06:48:27.455Z,95580.10
2019-05-10T06:51:09.780Z,95599.28
2019-05-10T06:54:09.593Z,95596.75
2019-05-10T06:56:52.607Z,95598.71
2019-05-10T06:59:42.665Z,95606.42
2019-05-10T07:02:32.646Z,95598.60
2019-05-10T07:05:04.952Z,95603.43
2019-05-10T07:07:43.976Z,95598.05
2019-05-10T07:10:17.697Z,95599.69
2019-05-10T07:13:03.516Z,95605.78
2019-05-10T07:15:44.833Z,95615.22
2019-05-10T07:18:34.742Z,95611.80
2019-05-10T07:21:17.627Z,95609.09
2019-05-10T07:24:07.356Z,95608.16
2019-05-10T07:26:49.532Z,95613.66
2019-05-10T07:29:43.220Z,95613.03
2019-05-10T07:32:24.748Z,95619.99
2019-05-10T07:35:14.500Z,95596.75
2019-05-10T07:37:56.813Z,95627.13
2019-05-10T07:40:46.544Z,95626.69
2019-05-10T07:43:29.509Z,95626.04
2019-05-10T07:46:19.249Z,95626.19
2019-05-10T07:49:01.480Z,95625.78
2019-05-10T07:51:51.213Z,95632.27
2019-05-10T07:54:37.709Z,95630.03
2019-05-10T07:57:27.038Z,95630.19
2019-05-10T08:00:09.172Z,95635.02
2019-05-10T08:03:09.809Z,95628.57
2019-05-10T08:05:46.160Z,95615.59
2019-05-10T08:08:29.638Z,95628.48
2019-05-10T08:11:19.156Z,95644.14
2019-05-10T08:14:06.268Z,95645.40
2019-05-10T08:16:38.610Z,95647.91
2019-05-10T08:19:19.922Z,95646.88
2019-05-10T08:22:09.630Z,95638.94
2019-05-10T08:24:56.215Z,95647.20
2019-05-10T08:27:50.276Z,95624.69
2019-05-10T08:30:53.485Z,95648.89
2019-05-10T08:33:46.367Z,95648.87
2019-05-10T08:36:24.042Z,95649.77
2019-05-10T08:39:14.162Z,95624.03
2019-05-10T08:42:04.841Z,95648.67
2019-05-10T08:45:09.094Z,95623.17
2019-05-10T08:48:00.504Z,95657.80
2019-05-10T08:50:53.299Z,95656.98
2019-05-10T08:53:28.232Z,95658.59
2019-05-10T08:56:21.696Z,95655.66
2019-05-10T08:59:03.869Z,95667.70
2019-05-10T09:01:53.804Z,95636.22
2019-05-10T09:04:45.396Z,95664.20
2019-05-10T09:07:29.489Z,95661.89
2019-05-10T09:10:13.199Z,95662.03
2019-05-10T09:15:54.346Z,95666.73
2019-05-10T09:18:22.909Z,95661.25
2019-05-10T09:21:14.350Z,95663.01
2019-05-10T09:24:06.659Z,95663.48
2019-05-10T09:26:52.764Z,95673.52
2019-05-10T09:29:39.551Z,95676.66
2019-05-10T09:32:28.971Z,95683.52
2019-05-10T09:35:15.130Z,95652.32
2019-05-10T09:37:58.686Z,95685.07
2019-05-10T09:40:52.973Z,95687.79
2019-05-10T09:43:33.107Z,95695.81
2019-05-10T09:46:23.048Z,95693.39
2019-05-10T09:49:18.080Z,95696.99
2019-05-10T09:51:56.643Z,95697.31
2019-05-10T09:54:49.225Z,95704.15
2019-05-10T09:57:32.322Z,95705.83
2019-05-10T10:03:43.277Z,95699.75
2019-05-10T10:06:29.841Z,95703.20
2019-05-10T10:09:12.443Z,95674.45
2019-05-10T10:12:03.211Z,95698.91
2019-05-10T10:14:53.602Z,95694.23
2019-05-10T10:17:38.645Z,95692.43
2019-05-10T10:20:29.774Z,95691.02
2019-05-10T10:23:12.867Z,95688.69
2019-05-10T10:26:02.704Z,95684.49
2019-05-10T10:28:55.118Z,95680.37
2019-05-10T10:31:46.530Z,95678.72
2019-05-10T10:34:32.633Z,95672.39
2019-05-10T10:37:14.571Z,95664.91
2019-05-10T10:40:07.852Z,95664.00
2019-05-10T10:42:48.582Z,95664.95
2019-05-10T10:45:38.407Z,95661.58
2019-05-10T10:51:34.069Z,95629.98
2019-05-10T10:54:17.633Z,95639.62
2019-05-10T11:00:31.255Z,95644.30
2019-05-10T11:03:13.276Z,95638.80
2019-05-10T11:06:03.080Z,95644.27
2019-05-10T11:08:52.860Z,95641.39
2019-05-10T11:11:44.806Z,95647.44
2019-05-10T11:14:26.738Z,95649.92
2019-05-10T11:17:16.540Z,95643.47
2019-05-10T11:20:08.570Z,95639.38
2019-05-10T11:25:42.813Z,95615.05
2019-05-10T11:28:30.134Z,95640.09
2019-05-10T11:31:11.298Z,95641.03
2019-05-10T11:34:01.510Z,95618.25
2019-05-10T11:36:45.918Z,95635.64
2019-05-10T11:39:33.221Z,95646.72
2019-05-10T11:42:21.173Z,95646.98
2019-05-10T11:45:05.398Z,95649.59
2019-05-10T11:47:59.034Z,95653.28
2019-05-10T11:50:41.109Z,95634.91
2019-05-10T11:53:31.551Z,95663.05
2019-05-10T11:56:15.543Z,95663.63
2019-05-10T11:59:05.931Z,95670.17
2019-05-10T12:04:43.316Z,95644.40
2019-05-10T12:07:37.499Z,95670.86
2019-05-10T12:10:24.857Z,95638.44
2019-05-10T12:13:15.007Z,95659.64
2019-05-10T12:15:53.613Z,95639.10
2019-05-10T12:18:36.530Z,95661.96
2019-05-10T12:21:26.507Z,95658.94
2019-05-10T12:24:26.011Z,95658.57
2019-05-10T12:26:18.523Z,95658.22
2019-05-10T12:27:18.856Z,95651.95
2019-05-10T12:29:46.693Z,95655.08
2019-05-10T12:32:42.046Z,95647.88
2019-05-10T12:35:21.532Z,95635.68
2019-05-10T12:38:11.397Z,95647.37
2019-05-10T12:40:53.566Z,95625.75
2019-05-10T12:43:43.644Z,95631.55
2019-05-10T12:46:27.087Z,95623.74
2019-05-10T12:49:16.825Z,95651.38
2019-05-10T12:51:58.878Z,95649.41
2019-05-10T12:54:48.609Z,95650.42
2019-05-10T12:57:31.029Z,95634.06
2019-05-10T13:00:20.907Z,95652.10
2019-05-10T13:03:12.149Z,95647.20
2019-05-10T13:05:55.349Z,95651.63
2019-05-10T13:08:38.329Z,95650.95
2019-05-10T13:11:40.861Z,95650.13
2019-05-10T13:14:23.261Z,95627.61
2019-05-10T13:17:16.678Z,95650.61
2019-05-10T13:19:58.526Z,95640.92
2019-05-10T13:22:48.635Z,95629.69
2019-05-10T13:25:38.347Z,95643.06
2019-05-10T13:31:08.297Z,95645.01
2019-05-10T13:33:42.159Z,95641.23
2019-05-10T13:36:23.533Z,95642.36
2019-05-10T13:39:13.295Z,95647.31
2019-05-10T13:41:57.176Z,95628.22
2019-05-10T13:44:47.108Z,95646.59
2019-05-10T13:47:30.646Z,95651.94
2019-05-10T13:50:20.420Z,95652.30
2019-05-10T13:53:20.245Z,95644.97
2019-05-10T13:55:53.931Z,95642.53
2019-05-10T13:58:43.640Z,95627.27
2019-05-10T14:01:33.344Z,95651.95
2019-05-10T14:04:15.989Z,95648.28
2019-05-10T14:07:05.751Z,95648.58
2019-05-10T14:09:55.479Z,95644.23
2019-05-10T14:12:45.220Z,95644.80
2019-05-10T14:15:34.945Z,95644.48
2019-05-10T14:18:18.341Z,95631.94
2019-05-10T14:21:08.070Z,95636.75
2019-05-10T14:23:51.170Z,95613.70
2019-05-10T14:26:40.932Z,95628.77
2019-05-10T14:29:33.466Z,95636.10
2019-05-10T14:32:15.180Z,95624.44
2019-05-10T14:34:58.331Z,95623.35
2019-05-10T14:37:48.642Z,95633.83
2019-05-10T14:40:32.080Z,95629.17
2019-05-10T14:43:22.382Z,95608.67
2019-05-10T14:46:13.091Z,95625.81
2019-05-10T14:48:57.113Z,95632.20
2019-05-10T14:51:57.401Z,95632.15
2019-05-10T14:54:43.233Z,95613.03
2019-05-10T14:57:15.601Z,95639.46
2019-05-10T15:03:21.512Z,95639.90
2019-05-10T15:06:11.892Z,95635.55
2019-05-10T15:09:01.708Z,95632.27
2019-05-10T15:11:52.060Z,95620.22
2019-05-10T15:14:42.430Z,95611.52
2019-05-10T15:17:45.245Z,95621.10
2019-05-10T15:20:27.397Z,95629.66
2019-05-10T15:23:17.127Z,95630.14
2019-05-10T15:26:10.546Z,95629.41
2019-05-10T15:28:51.553Z,95621.94
2019-05-10T15:31:34.290Z,95615.27
2019-05-10T15:39:52.002Z,95611.36
2019-05-10T15:42:42.290Z,95614.66
2019-05-10T15:45:24.862Z,95615.19
2019-05-10T15:48:14.677Z,95613.88
2019-05-10T15:51:04.512Z,95629.63
2019-05-10T15:54:03.827Z,95631.22
2019-05-10T15:56:41.807Z,95642.71
2019-05-10T15:59:30.240Z,95643.05
2019-05-10T16:02:20.182Z,95642.78
2019-05-10T16:05:25.648Z,95641.56
2019-05-10T16:07:56.514Z,95606.66
2019-05-10T16:10:41.038Z,95616.09
2019-05-10T16:13:30.785Z,95612.75
2019-05-10T16:16:14.007Z,95608.13
2019-05-10T16:19:04.317Z,95612.80
2019-05-10T16:21:51.876Z,95611.22
2019-05-10T16:24:38.127Z,95597.09
2019-05-10T16:27:21.269Z,95598.15
2019-05-10T16:33:15.685Z,95601.78
2019-05-10T16:35:58.171Z,95604.09
2019-05-10T16:38:47.968Z,95598.87
2019-05-10T16:41:37.819Z,95592.10
2019-05-10T16:44:27.620Z,95595.22
2019-05-10T16:47:17.425Z,95591.27
2019-05-10T16:50:07.290Z,95589.08
2019-05-10T16:52:59.415Z,95585.11
2019-05-10T16:55:42.925Z,95593.32
2019-05-10T16:58:32.830Z,95570.56
2019-05-10T17:01:27.653Z,95583.67
2019-05-10T17:04:08.417Z,95588.63
2019-05-10T17:06:58.638Z,95589.78
2019-05-10T17:09:42.529Z,95580.59
2019-05-10T17:12:32.254Z,95582.29
2019-05-10T17:15:15.139Z,95593.20
2019-05-10T17:18:10.518Z,95589.23
2019-05-10T17:20:50.803Z,95594.45
2019-05-10T17:23:41.645Z,95594.55
2019-05-10T17:26:25.295Z,95582.80
2019-05-10T17:29:15.300Z,95597.80
2019-05-10T17:31:57.301Z,95591.22
2019-05-10T17:34:47.234Z,95569.33
2019-05-10T17:37:37.553Z,95587.27
2019-05-10T17:40:12.241Z,95609.94
2019-05-10T17:45:51.183Z,95619.22
2019-05-10T17:48:47.539Z,95619.99
2019-05-10T17:51:32.447Z,95623.59
2019-05-10T17:54:16.376Z,95614.15
2019-05-10T17:56:58.662Z,95613.30
2019-05-10T17:59:52.878Z,95616.82
2019-05-10T18:02:32.319Z,95606.27
2019-05-10T18:05:22.110Z,95624.18
2019-05-10T18:08:11.925Z,95618.11
2019-05-10T18:11:03.853Z,95616.73
2019-05-10T18:13:46.351Z,95613.28
2019-05-10T18:19:39.843Z,95616.89
2019-05-10T18:22:22.195Z,95624.13
2019-05-10T18:25:19.451Z,95631.15
2019-05-10T18:27:56.578Z,95637.73
2019-05-10T18:30:46.535Z,95634.39
2019-05-10T18:33:36.262Z,95639.61
2019-05-10T18:36:50.030Z,95626.40
2019-05-10T18:39:17.769Z,95625.66
2019-05-10T18:42:01.928Z,95622.29
2019-05-10T18:44:53.966Z,95624.53
2019-05-10T18:47:36.078Z,95624.92
2019-05-10T18:50:26.202Z,95598.67
2019-05-10T18:53:08.265Z,95620.07
2019-05-10T18:55:58.044Z,95616.05
2019-05-10T18:58:47.874Z,95615.08
2019-05-10T19:01:32.952Z,95616.20
2019-05-10T19:07:17.195Z,95630.33
2019-05-10T19:10:07.125Z,95610.00
2019-05-10T19:12:59.917Z,95629.36
2019-05-10T19:15:40.678Z,95642.06
2019-05-10T19:18:26.753Z,95611.07
2019-05-10T19:21:16.529Z,95635.58
2019-05-10T19:23:59.531Z,95632.20
2019-05-10T19:26:49.533Z,95636.11
2019-05-10T19:29:32.107Z,95636.60
2019-05-10T19:32:21.945Z,95641.19
2019-05-10T19:35:05.318Z,95647.09
2019-05-10T19:37:47.512Z,95636.38
2019-05-10T19:40:37.336Z,95638.46
2019-05-10T19:43:27.173Z,95614.44
2019-05-10T19:46:16.937Z,95640.49
2019-05-10T19:54:27.770Z,95628.70
2019-05-10T19:57:18.909Z,95634.53
2019-05-10T20:00:01.950Z,95614.36
2019-05-10T20:02:51.818Z,95629.30
2019-05-10T20:05:41.692Z,95605.25
2019-05-10T20:08:31.461Z,95624.66
2019-05-10T20:11:21.227Z,95632.73
2019-05-10T20:14:10.968Z,95638.16
2019-05-10T20:17:00.723Z,95643.51
2019-05-10T20:19:42.753Z,95643.51
2019-05-10T20:22:35.988Z,95640.56
2019-05-10T20:25:17.209Z,95638.46
2019-05-10T20:28:07.063Z,95623.11
2019-05-10T20:30:56.935Z,95648.66
2019-05-10T20:33:46.716Z,95656.89
2019-05-10T20:36:36.472Z,95664.98
2019-05-10T20:39:26.237Z,95669.86
2019-05-10T20:42:08.680Z,95666.66
2019-05-10T20:45:07.581Z,95652.12
2019-05-10T20:47:42.324Z,95652.95
2019-05-10T20:50:32.068Z,95640.75
2019-05-10T20:53:14.870Z,95657.31
2019-05-10T20:56:04.633Z,95645.52
2019-05-10T20:58:54.412Z,95650.75
2019-05-10T21:01:36.992Z,95650.12
2019-05-10T21:04:26.716Z,95621.41
2019-05-10T21:07:08.955Z,95638.44
2019-05-10T21:09:58.721Z,95635.16
2019-05-10T21:12:48.456Z,95644.61
2019-05-10T21:15:57.350Z,95639.44
2019-05-10T21:19:06.172Z,95642.56
2019-05-10T21:24:51.901Z,95637.59
2019-05-10T21:27:41.644Z,95637.34
2019-05-10T21:30:23.780Z,95632.04
2019-05-10T21:33:13.517Z,95631.09
2019-05-10T21:35:56.306Z,95629.85
2019-05-10T21:38:46.076Z,95636.97
2019-05-10T21:41:28.146Z,95626.83
2019-05-10T21:44:17.880Z,95641.19
2019-05-10T21:47:00.406Z,95641.44
2019-05-10T21:49:50.141Z,95637.80
2019-05-10T21:52:32.204Z,95631.25
2019-05-10T22:01:01.685Z,95621.80
2019-05-10T22:03:51.578Z,95622.46
2019-05-10T22:06:41.678Z,95619.58
2019-05-10T22:09:31.439Z,95616.77
2019-05-10T22:12:21.160Z,95625.84
2019-05-10T22:15:30.106Z,95619.55
2019-05-10T22:18:12.100Z,95607.67
2019-05-10T22:21:01.791Z,95613.17
2019-05-10T22:23:44.140Z,95616.06
2019-05-10T22:26:33.872Z,95586.77
2019-05-10T22:29:16.512Z,95614.31
2019-05-10T22:32:06.251Z,95606.61
2019-05-10T22:34:48.521Z,95606.58
2019-05-10T22:37:38.272Z,95609.54
2019-05-10T22:40:21.188Z,95604.63
2019-05-10T22:43:10.936Z,95601.48
2019-05-10T22:45:53.785Z,95596.63
2019-05-10T22:48:43.714Z,95597.34
2019-05-10T22:51:26.335Z,95593.11
2019-05-10T22:54:16.027Z,95585.87
2019-05-10T22:56:58.797Z,95584.62
2019-05-10T22:59:48.508Z,95556.45
2019-05-10T23:02:31.244Z,95588.08
2019-05-10T23:05:20.979Z,95589.09
2019-05-10T23:08:03.824Z,95593.36
2019-05-10T23:10:53.558Z,95594.47
2019-05-10T23:13:35.699Z,95598.28
2019-05-10T23:16:25.421Z,95597.95
2019-05-10T23:19:07.683Z,95597.95
2019-05-10T23:21:57.393Z,95601.13
2019-05-10T23:24:41.342Z,95594.08
2019-05-10T23:27:31.057Z,95584.28
2019-05-10T23:30:14.907Z,95583.13
2019-05-10T23:33:04.633Z,95591.44
2019-05-10T23:35:47.445Z,95574.16
2019-05-10T23:38:37.174Z,95551.39
2019-05-10T23:41:19.364Z,95548.06
2019-05-10T23:44:09.097Z,95573.83
2019-05-10T23:46:51.593Z,95563.78
2019-05-10T23:49:41.394Z,95543.11
2019-05-10T23:52:31.345Z,95538.19
2019-05-10T23:55:21.189Z,95506.83
2019-05-10T23:58:10.940Z,95520.88
